sensor_id;sensor_type;location;lat;lon;timestamp;temperature;humidity
1594;DHT22;790;47.000;16.084;2022-09-21T00:05:37;8.60;99.90
1594;DHT22;790;47.000;16.084;2022-09-21T00:11:46;8.60;99.90
1594;DHT22;790;47.000;16.084;2022-09-21T00:17:55;8.50;99.90
1594;DHT22;790;47.000;16.084;2022-09-21T00:24:04;8.50;99.90
1594;DHT22;790;47.000;16.084;2022-09-21T00:30:14;8.60;99.90
1594;DHT22;790;47.000;16.084;2022-09-21T00:36:23;8.70;99.90
1594;DHT22;790;47.000;16.084;2022-09-21T00:42:33;8.80;99.90
1594;DHT22;790;47.000;16.084;2022-09-21T00:52:57;8.70;99.90
1594;DHT22;790;47.000;16.084;2022-09-21T00:59:18;8.80;99.90
1594;DHT22;790;47.000;16.084;2022-09-21T01:05:39;8.60;99.90
1594;DHT22;790;47.000;16.084;2022-09-21T01:12:12;8.60;99.90
1594;DHT22;790;47.000;16.084;2022-09-21T01:18:59;8.50;99.90
1594;DHT22;790;47.000;16.084;2022-09-21T01:25:28;8.50;99.90
1594;DHT22;790;47.000;16.084;2022-09-21T01:32:01;8.30;99.90
1594;DHT22;790;47.000;16.084;2022-09-21T01:38:26;8.30;99.90
1594;DHT22;790;47.000;16.084;2022-09-21T01:44:49;8.50;99.90
1594;DHT22;790;47.000;16.084;2022-09-21T01:55:48;8.40;99.90
1594;DHT22;790;47.000;16.084;2022-09-21T02:01:59;8.40;99.90
1594;DHT22;790;47.000;16.084;2022-09-21T02:08:10;8.40;99.90
1594;DHT22;790;47.000;16.084;2022-09-21T02:14:21;8.50;99.90
1594;DHT22;790;47.000;16.084;2022-09-21T02:20:32;8.40;99.90
1594;DHT22;790;47.000;16.084;2022-09-21T02:26:47;8.40;99.90
1594;DHT22;790;47.000;16.084;2022-09-21T02:33:02;8.40;99.90
1594;DHT22;790;47.000;16.084;2022-09-21T02:39:16;8.10;99.90
1594;DHT22;790;47.000;16.084;2022-09-21T02:45:27;7.90;99.90
1594;DHT22;790;47.000;16.084;2022-09-21T02:56:04;8.00;99.90
1594;DHT22;790;47.000;16.084;2022-09-21T03:02:35;8.20;99.90
1594;DHT22;790;47.000;16.084;2022-09-21T03:08:56;8.10;99.90
1594;DHT22;790;47.000;16.084;2022-09-21T03:15:20;8.30;99.90
1594;DHT22;790;47.000;16.084;2022-09-21T03:21:41;8.20;99.90
1594;DHT22;790;47.000;16.084;2022-09-21T03:28:01;8.00;99.90
1594;DHT22;790;47.000;16.084;2022-09-21T03:34:25;7.70;99.90
1594;DHT22;790;47.000;16.084;2022-09-21T03:40:47;7.90;99.90
1594;DHT22;790;47.000;16.084;2022-09-21T03:47:08;8.10;99.90
1594;DHT22;790;47.000;16.084;2022-09-21T03:57:56;8.20;99.90
1594;DHT22;790;47.000;16.084;2022-09-21T04:04:04;8.10;99.90
1594;DHT22;790;47.000;16.084;2022-09-21T04:10:14;7.70;99.90
1594;DHT22;790;47.000;16.084;2022-09-21T04:16:24;7.70;99.90
1594;DHT22;790;47.000;16.084;2022-09-21T04:22:32;7.80;99.90
1594;DHT22;790;47.000;16.084;2022-09-21T04:28:40;7.70;99.90
1594;DHT22;790;47.000;16.084;2022-09-21T04:34:49;7.50;99.90
1594;DHT22;790;47.000;16.084;2022-09-21T04:40:57;7.40;99.90
1594;DHT22;790;47.000;16.084;2022-09-21T04:47:04;7.30;99.90
1594;DHT22;790;47.000;16.084;2022-09-21T04:57:28;7.50;99.90
1594;DHT22;790;47.000;16.084;2022-09-21T05:03:50;7.30;99.90
1594;DHT22;790;47.000;16.084;2022-09-21T05:10:11;6.90;99.90
1594;DHT22;790;47.000;16.084;2022-09-21T05:16:33;7.10;99.90
1594;DHT22;790;47.000;16.084;2022-09-21T05:22:54;7.10;99.90
1594;DHT22;790;47.000;16.084;2022-09-21T05:29:16;6.80;99.90
1594;DHT22;790;47.000;16.084;2022-09-21T05:35:57;6.90;99.90
1594;DHT22;790;47.000;16.084;2022-09-21T05:42:19;7.00;99.90
1594;DHT22;790;47.000;16.084;2022-09-21T05:48:43;7.10;99.90
1594;DHT22;790;47.000;16.084;2022-09-21T05:59:45;7.10;99.90
1594;DHT22;790;47.000;16.084;2022-09-21T06:05:55;7.10;99.90
1594;DHT22;790;47.000;16.084;2022-09-21T06:12:03;7.00;99.90
1594;DHT22;790;47.000;16.084;2022-09-21T06:18:13;7.30;99.90
1594;DHT22;790;47.000;16.084;2022-09-21T06:24:20;7.50;99.90
1594;DHT22;790;47.000;16.084;2022-09-21T06:30:28;7.70;99.90
1594;DHT22;790;47.000;16.084;2022-09-21T06:36:37;7.90;99.90
1594;DHT22;790;47.000;16.084;2022-09-21T06:43:16;8.10;99.90
1594;DHT22;790;47.000;16.084;2022-09-21T06:49:24;8.30;99.90
1594;DHT22;790;47.000;16.084;2022-09-21T07:00:00;8.60;99.90
1594;DHT22;790;47.000;16.084;2022-09-21T07:06:21;8.80;99.90
1594;DHT22;790;47.000;16.084;2022-09-21T07:12:43;9.20;99.90
1594;DHT22;790;47.000;16.084;2022-09-21T07:19:05;9.50;99.90
1594;DHT22;790;47.000;16.084;2022-09-21T07:25:26;9.60;99.90
1594;DHT22;790;47.000;16.084;2022-09-21T07:31:48;10.10;99.90
1594;DHT22;790;47.000;16.084;2022-09-21T07:38:11;10.40;99.90
1594;DHT22;790;47.000;16.084;2022-09-21T07:44:33;10.80;99.90
1594;DHT22;790;47.000;16.084;2022-09-21T07:50:53;11.20;99.90
1594;DHT22;790;47.000;16.084;2022-09-21T08:01:42;11.30;99.90
1594;DHT22;790;47.000;16.084;2022-09-21T08:07:49;11.50;99.90
1594;DHT22;790;47.000;16.084;2022-09-21T08:14:00;11.90;99.90
1594;DHT22;790;47.000;16.084;2022-09-21T08:20:10;12.20;99.90
1594;DHT22;790;47.000;16.084;2022-09-21T08:26:19;12.70;99.90
1594;DHT22;790;47.000;16.084;2022-09-21T08:32:29;13.10;99.90
1594;DHT22;790;47.000;16.084;2022-09-21T08:38:39;13.30;99.90
1594;DHT22;790;47.000;16.084;2022-09-21T08:44:50;13.60;99.90
1594;DHT22;790;47.000;16.084;2022-09-21T08:51:02;13.80;99.90
1594;DHT22;790;47.000;16.084;2022-09-21T09:01:32;14.00;99.90
1594;DHT22;790;47.000;16.084;2022-09-21T09:15:16;14.70;99.90
1594;DHT22;790;47.000;16.084;2022-09-21T09:21:43;14.50;99.90
1594;DHT22;790;47.000;16.084;2022-09-21T09:28:18;14.70;99.90
1594;DHT22;790;47.000;16.084;2022-09-21T09:34:43;15.20;99.90
1594;DHT22;790;47.000;16.084;2022-09-21T09:41:38;15.50;99.90
1594;DHT22;790;47.000;16.084;2022-09-21T09:48:16;15.80;99.90
1594;DHT22;790;47.000;16.084;2022-09-21T09:54:40;16.20;99.90
1594;DHT22;790;47.000;16.084;2022-09-21T10:01:37;16.40;99.90
1594;DHT22;790;47.000;16.084;2022-09-21T10:08:00;16.00;99.90
1594;DHT22;790;47.000;16.084;2022-09-21T10:14:23;15.90;99.90
1594;DHT22;790;47.000;16.084;2022-09-21T10:20:57;16.10;99.90
1594;DHT22;790;47.000;16.084;2022-09-21T10:27:22;16.00;99.90
1594;DHT22;790;47.000;16.084;2022-09-21T10:33:50;15.80;99.90
1594;DHT22;790;47.000;16.084;2022-09-21T10:40:24;15.60;99.90
1594;DHT22;790;47.000;16.084;2022-09-21T10:46:47;16.00;99.90
1594;DHT22;790;47.000;16.084;2022-09-21T10:53:18;16.20;99.90
1594;DHT22;790;47.000;16.084;2022-09-21T11:04:39;16.60;99.90
1594;DHT22;790;47.000;16.084;2022-09-21T11:10:52;16.10;99.90
1594;DHT22;790;47.000;16.084;2022-09-21T11:17:13;16.20;99.90
1594;DHT22;790;47.000;16.084;2022-09-21T11:23:32;16.30;99.90
1594;DHT22;790;47.000;16.084;2022-09-21T11:29:51;16.40;99.90
1594;DHT22;790;47.000;16.084;2022-09-21T11:36:05;16.40;99.90
1594;DHT22;790;47.000;16.084;2022-09-21T11:42:30;16.70;99.90
1594;DHT22;790;47.000;16.084;2022-09-21T11:49:02;17.20;99.90
1594;DHT22;790;47.000;16.084;2022-09-21T11:55:21;17.40;99.90
1594;DHT22;790;47.000;16.084;2022-09-21T12:06:42;16.90;99.30
1594;DHT22;790;47.000;16.084;2022-09-21T12:13:10;16.50;99.90
1594;DHT22;790;47.000;16.084;2022-09-21T12:19:40;16.70;99.90
1594;DHT22;790;47.000;16.084;2022-09-21T12:26:08;16.90;99.90
1594;DHT22;790;47.000;16.084;2022-09-21T12:32:38;17.00;98.90
1594;DHT22;790;47.000;16.084;2022-09-21T12:39:12;17.40;98.30
1594;DHT22;790;47.000;16.084;2022-09-21T12:45:39;17.50;99.10
1594;DHT22;790;47.000;16.084;2022-09-21T12:52:03;17.60;97.40
1594;DHT22;790;47.000;16.084;2022-09-21T12:58:40;17.20;98.60
1594;DHT22;790;47.000;16.084;2022-09-21T13:10:11;16.90;97.80
1594;DHT22;790;47.000;16.084;2022-09-21T13:16:24;16.80;99.90
1594;DHT22;790;47.000;16.084;2022-09-21T13:22:34;17.10;97.80
1594;DHT22;790;47.000;16.084;2022-09-21T13:29:07;17.40;97.70
1594;DHT22;790;47.000;16.084;2022-09-21T13:35:53;17.40;97.70
1594;DHT22;790;47.000;16.084;2022-09-21T13:48:52;16.90;96.90
1594;DHT22;790;47.000;16.084;2022-09-21T13:55:02;17.00;98.40
1594;DHT22;790;47.000;16.084;2022-09-21T14:01:16;17.10;98.40
1594;DHT22;790;47.000;16.084;2022-09-21T14:12:38;17.40;99.90
1594;DHT22;790;47.000;16.084;2022-09-21T14:26:19;17.50;98.40
1594;DHT22;790;47.000;16.084;2022-09-21T14:32:45;17.60;95.90
1594;DHT22;790;47.000;16.084;2022-09-21T14:39:15;17.70;95.20
1594;DHT22;790;47.000;16.084;2022-09-21T14:45:49;17.90;94.90
1594;DHT22;790;47.000;16.084;2022-09-21T14:52:23;18.10;97.20
1594;DHT22;790;47.000;16.084;2022-09-21T14:59:02;18.00;95.90
1594;DHT22;790;47.000;16.084;2022-09-21T15:05:32;17.80;97.80
1594;DHT22;790;47.000;16.084;2022-09-21T15:12:18;17.40;98.20
1594;DHT22;790;47.000;16.084;2022-09-21T15:18:40;17.20;99.90
1594;DHT22;790;47.000;16.084;2022-09-21T15:25:03;16.90;99.40
1594;DHT22;790;47.000;16.084;2022-09-21T15:31:31;16.60;99.90
1594;DHT22;790;47.000;16.084;2022-09-21T15:37:52;16.40;99.10
1594;DHT22;790;47.000;16.084;2022-09-21T15:44:15;16.10;99.70
1594;DHT22;790;47.000;16.084;2022-09-21T15:50:39;16.10;99.60
1594;DHT22;790;47.000;16.084;2022-09-21T15:57:03;16.00;99.90
1594;DHT22;790;47.000;16.084;2022-09-21T16:03:28;15.90;99.90
1594;DHT22;790;47.000;16.084;2022-09-21T16:14:24;15.80;99.90
1594;DHT22;790;47.000;16.084;2022-09-21T16:20:50;15.80;99.90
1594;DHT22;790;47.000;16.084;2022-09-21T16:27:00;15.80;99.90
1594;DHT22;790;47.000;16.084;2022-09-21T16:33:37;15.70;99.90
1594;DHT22;790;47.000;16.084;2022-09-21T16:39:46;15.40;99.90
1594;DHT22;790;47.000;16.084;2022-09-21T16:45:54;15.10;99.90
1594;DHT22;790;47.000;16.084;2022-09-21T16:52:04;14.90;99.90
1594;DHT22;790;47.000;16.084;2022-09-21T16:58:13;14.50;99.90
1594;DHT22;790;47.000;16.084;2022-09-21T17:04:23;14.20;99.90
1594;DHT22;790;47.000;16.084;2022-09-21T17:14:57;13.80;99.90
1594;DHT22;790;47.000;16.084;2022-09-21T17:21:20;13.60;99.90
1594;DHT22;790;47.000;16.084;2022-09-21T17:27:41;13.20;99.90
1594;DHT22;790;47.000;16.084;2022-09-21T17:34:09;12.80;99.90
1594;DHT22;790;47.000;16.084;2022-09-21T17:40:33;12.40;99.90
1594;DHT22;790;47.000;16.084;2022-09-21T17:46:58;11.90;99.90
1594;DHT22;790;47.000;16.084;2022-09-21T17:53:23;11.60;99.90
1594;DHT22;790;47.000;16.084;2022-09-21T18:00:02;11.40;99.90
1594;DHT22;790;47.000;16.084;2022-09-21T18:06:24;11.40;99.90
1594;DHT22;790;47.000;16.084;2022-09-21T18:17:43;11.10;99.90
1594;DHT22;790;47.000;16.084;2022-09-21T18:24:19;11.00;99.90
1594;DHT22;790;47.000;16.084;2022-09-21T18:30:28;10.70;99.90
1594;DHT22;790;47.000;16.084;2022-09-21T18:36:43;10.60;99.90
1594;DHT22;790;47.000;16.084;2022-09-21T18:42:59;10.50;99.90
1594;DHT22;790;47.000;16.084;2022-09-21T18:49:27;10.30;99.90
1594;DHT22;790;47.000;16.084;2022-09-21T18:55:42;10.20;99.90
1594;DHT22;790;47.000;16.084;2022-09-21T19:01:51;10.40;99.90
1594;DHT22;790;47.000;16.084;2022-09-21T19:08:04;10.50;99.90
1594;DHT22;790;47.000;16.084;2022-09-21T19:18:50;9.90;99.90
1594;DHT22;790;47.000;16.084;2022-09-21T19:25:19;9.90;99.90
1594;DHT22;790;47.000;16.084;2022-09-21T19:31:44;9.90;99.90
1594;DHT22;790;47.000;16.084;2022-09-21T19:38:08;9.80;99.90
1594;DHT22;790;47.000;16.084;2022-09-21T19:44:49;9.70;99.90
1594;DHT22;790;47.000;16.084;2022-09-21T19:51:23;9.60;99.90
1594;DHT22;790;47.000;16.084;2022-09-21T19:57:48;9.50;99.90
1594;DHT22;790;47.000;16.084;2022-09-21T20:04:31;9.30;99.90
1594;DHT22;790;47.000;16.084;2022-09-21T20:11:10;9.30;99.90
1594;DHT22;790;47.000;16.084;2022-09-21T20:22:32;9.20;99.90
1594;DHT22;790;47.000;16.084;2022-09-21T20:28:41;8.90;99.90
1594;DHT22;790;47.000;16.084;2022-09-21T20:34:49;8.90;99.90
1594;DHT22;790;47.000;16.084;2022-09-21T20:40:58;8.80;99.90
1594;DHT22;790;47.000;16.084;2022-09-21T20:47:07;8.70;99.90
1594;DHT22;790;47.000;16.084;2022-09-21T20:53:15;8.80;99.90
1594;DHT22;790;47.000;16.084;2022-09-21T20:59:26;8.60;99.90
1594;DHT22;790;47.000;16.084;2022-09-21T21:05:34;8.50;99.90
1594;DHT22;790;47.000;16.084;2022-09-21T21:11:41;8.50;99.90
1594;DHT22;790;47.000;16.084;2022-09-21T21:22:14;8.40;99.90
1594;DHT22;790;47.000;16.084;2022-09-21T21:28:36;8.40;99.90
1594;DHT22;790;47.000;16.084;2022-09-21T21:34:57;8.30;99.90
1594;DHT22;790;47.000;16.084;2022-09-21T21:41:20;8.20;99.90
1594;DHT22;790;47.000;16.084;2022-09-21T21:47:42;8.10;99.90
1594;DHT22;790;47.000;16.084;2022-09-21T21:54:03;8.00;99.90
1594;DHT22;790;47.000;16.084;2022-09-21T22:00:25;7.90;99.90
1594;DHT22;790;47.000;16.084;2022-09-21T22:06:47;8.00;99.90
1594;DHT22;790;47.000;16.084;2022-09-21T22:13:08;7.90;99.90
1594;DHT22;790;47.000;16.084;2022-09-21T22:23:57;7.70;99.90
1594;DHT22;790;47.000;16.084;2022-09-21T22:30:15;7.70;99.90
1594;DHT22;790;47.000;16.084;2022-09-21T22:36:24;7.60;99.90
1594;DHT22;790;47.000;16.084;2022-09-21T22:42:33;7.60;99.90
1594;DHT22;790;47.000;16.084;2022-09-21T22:48:42;7.40;99.90
1594;DHT22;790;47.000;16.084;2022-09-21T22:54:50;7.40;99.90
1594;DHT22;790;47.000;16.084;2022-09-21T23:01:04;7.50;99.90
1594;DHT22;790;47.000;16.084;2022-09-21T23:07:12;7.50;99.90
1594;DHT22;790;47.000;16.084;2022-09-21T23:13:20;7.40;99.90
1594;DHT22;790;47.000;16.084;2022-09-21T23:23:34;7.30;99.90
1594;DHT22;790;47.000;16.084;2022-09-21T23:29:56;7.30;99.90
1594;DHT22;790;47.000;16.084;2022-09-21T23:36:18;7.10;99.90
1594;DHT22;790;47.000;16.084;2022-09-21T23:42:41;7.20;99.90
1594;DHT22;790;47.000;16.084;2022-09-21T23:49:02;7.20;99.90
1594;DHT22;790;47.000;16.084;2022-09-21T23:55:24;7.00;99.90
